sensor_id;sensor_type;location;lat;lon;timestamp;pressure;altitude;pressure_sealevel;temperature;humidity
11888;BME280;6003;42.756;23.130;2023-06-22T00:00:00;157000.50;;;17.77;89.75
11888;BME280;6003;42.756;23.130;2023-06-22T00:02:28;156999.16;;;17.77;89.90
11888;BME280;6003;42.756;23.130;2023-06-22T00:04:55;157004.53;;;17.79;88.80
11888;BME280;6003;42.756;23.130;2023-06-22T00:07:21;157004.53;;;17.79;88.40
11888;BME280;6003;42.756;23.130;2023-06-22T00:09:49;157007.19;;;17.80;89.22
11888;BME280;6003;42.756;23.130;2023-06-22T00:12:16;157001.84;;;17.78;90.51
11888;BME280;6003;42.756;23.130;2023-06-22T00:14:43;156988.56;;;17.73;90.34
11888;BME280;6003;42.756;23.130;2023-06-22T00:17:10;156975.25;;;17.68;90.75
11888;BME280;6003;42.756;23.130;2023-06-22T00:19:38;156976.56;;;17.68;90.94
11888;BME280;6003;42.756;23.130;2023-06-22T00:22:05;156968.59;;;17.65;91.51
11888;BME280;6003;42.756;23.130;2023-06-22T00:24:32;156956.63;;;17.60;91.81
11888;BME280;6003;42.756;23.130;2023-06-22T00:26:59;156942.00;;;17.55;91.56
11888;BME280;6003;42.756;23.130;2023-06-22T00:29:26;156932.72;;;17.51;91.34
11888;BME280;6003;42.756;23.130;2023-06-22T00:31:53;156927.44;;;17.49;92.01
11888;BME280;6003;42.756;23.130;2023-06-22T00:34:19;156906.19;;;17.41;93.04
11888;BME280;6003;42.756;23.130;2023-06-22T00:36:48;156871.63;;;17.28;94.59
11888;BME280;6003;42.756;23.130;2023-06-22T00:39:17;156866.28;;;17.26;94.76
11888;BME280;6003;42.756;23.130;2023-06-22T00:41:43;156858.31;;;17.23;94.80
11888;BME280;6003;42.756;23.130;2023-06-22T00:44:10;156849.03;;;17.19;94.25
11888;BME280;6003;42.756;23.130;2023-06-22T00:46:37;156847.72;;;17.19;93.30
11888;BME280;6003;42.756;23.130;2023-06-22T00:49:04;156857.00;;;17.22;92.91
11888;BME280;6003;42.756;23.130;2023-06-22T00:51:31;156858.31;;;17.23;92.72
11888;BME280;6003;42.756;23.130;2023-06-22T00:54:00;156862.31;;;17.24;92.09
11888;BME280;6003;42.756;23.130;2023-06-22T00:56:27;156858.31;;;17.23;93.68
11888;BME280;6003;42.756;23.130;2023-06-22T00:58:55;156845.06;;;17.18;94.88
11888;BME280;6003;42.756;23.130;2023-06-22T01:01:22;156847.72;;;17.19;95.01
11888;BME280;6003;42.756;23.130;2023-06-22T01:03:50;156847.72;;;17.19;94.81
11888;BME280;6003;42.756;23.130;2023-06-22T01:06:22;156839.75;;;17.16;94.98
11888;BME280;6003;42.756;23.130;2023-06-22T01:08:58;156839.75;;;17.16;94.97
11888;BME280;6003;42.756;23.130;2023-06-22T01:11:34;156837.06;;;17.14;95.02
11888;BME280;6003;42.756;23.130;2023-06-22T01:14:07;156835.75;;;17.14;95.07
11888;BME280;6003;42.756;23.130;2023-06-22T01:16:37;156849.03;;;17.19;93.99
11888;BME280;6003;42.756;23.130;2023-06-22T01:19:18;156853.03;;;17.21;93.14
11888;BME280;6003;42.756;23.130;2023-06-22T01:21:47;156868.97;;;17.27;92.62
11888;BME280;6003;42.756;23.130;2023-06-22T01:24:24;156871.63;;;17.28;93.86
11888;BME280;6003;42.756;23.130;2023-06-22T01:27:00;156866.28;;;17.26;94.07
11888;BME280;6003;42.756;23.130;2023-06-22T01:29:33;156858.31;;;17.23;94.22
11888;BME280;6003;42.756;23.130;2023-06-22T01:32:02;156851.66;;;17.20;94.64
11888;BME280;6003;42.756;23.130;2023-06-22T01:34:31;156831.78;;;17.12;94.77
11888;BME280;6003;42.756;23.130;2023-06-22T01:36:59;156819.81;;;17.08;94.33
11888;BME280;6003;42.756;23.130;2023-06-22T01:39:27;156821.13;;;17.08;95.15
11888;BME280;6003;42.756;23.130;2023-06-22T01:41:55;156818.47;;;17.07;95.67
11888;BME280;6003;42.756;23.130;2023-06-22T01:44:24;156806.50;;;17.03;95.06
11888;BME280;6003;42.756;23.130;2023-06-22T01:46:53;156813.16;;;17.05;94.42
11888;BME280;6003;42.756;23.130;2023-06-22T01:49:21;156813.16;;;17.05;94.56
11888;BME280;6003;42.756;23.130;2023-06-22T01:51:48;156807.88;;;17.03;94.56
11888;BME280;6003;42.756;23.130;2023-06-22T01:54:15;156801.22;;;17.01;95.35
11888;BME280;6003;42.756;23.130;2023-06-22T01:56:42;156795.91;;;16.99;95.40
11888;BME280;6003;42.756;23.130;2023-06-22T01:59:14;156797.22;;;16.99;95.38
11888;BME280;6003;42.756;23.130;2023-06-22T02:01:54;156797.22;;;16.99;95.02
11888;BME280;6003;42.756;23.130;2023-06-22T02:04:27;156794.59;;;16.98;94.59
11888;BME280;6003;42.756;23.130;2023-06-22T02:06:57;156794.59;;;16.98;94.42
11888;BME280;6003;42.756;23.130;2023-06-22T02:09:26;156794.59;;;16.98;94.67
11888;BME280;6003;42.756;23.130;2023-06-22T02:11:56;156794.59;;;16.98;96.21
11888;BME280;6003;42.756;23.130;2023-06-22T02:14:24;156789.25;;;16.96;96.36
11888;BME280;6003;42.756;23.130;2023-06-22T02:16:51;156778.66;;;16.92;95.77
11888;BME280;6003;42.756;23.130;2023-06-22T02:19:24;156773.31;;;16.90;95.76
11888;BME280;6003;42.756;23.130;2023-06-22T02:21:51;156765.34;;;16.87;95.62
11888;BME280;6003;42.756;23.130;2023-06-22T02:24:18;156758.72;;;16.84;96.01
11888;BME280;6003;42.756;23.130;2023-06-22T02:26:44;156752.06;;;16.82;96.98
11888;BME280;6003;42.756;23.130;2023-06-22T02:29:11;156741.47;;;16.78;97.00
11888;BME280;6003;42.756;23.130;2023-06-22T02:31:38;156728.13;;;16.73;97.81
11888;BME280;6003;42.756;23.130;2023-06-22T02:34:05;156722.78;;;16.70;98.55
11888;BME280;6003;42.756;23.130;2023-06-22T02:36:33;156712.19;;;16.66;98.43
11888;BME280;6003;42.756;23.130;2023-06-22T02:39:00;156708.19;;;16.65;98.38
11888;BME280;6003;42.756;23.130;2023-06-22T02:41:29;156701.53;;;16.62;97.99
11888;BME280;6003;42.756;23.130;2023-06-22T02:46:36;156698.91;;;16.61;97.84
11888;BME280;6003;42.756;23.130;2023-06-22T02:49:03;156693.59;;;16.59;98.25
11888;BME280;6003;42.756;23.130;2023-06-22T02:51:34;156682.97;;;16.55;98.98
11888;BME280;6003;42.756;23.130;2023-06-22T02:54:01;156667.06;;;16.49;100.00
11888;BME280;6003;42.756;23.130;2023-06-22T02:56:28;156669.69;;;16.50;100.00
11888;BME280;6003;42.756;23.130;2023-06-22T02:58:55;156671.00;;;16.51;100.00
11888;BME280;6003;42.756;23.130;2023-06-22T03:01:26;156694.91;;;16.60;100.00
11888;BME280;6003;42.756;23.130;2023-06-22T03:03:53;156725.50;;;16.72;100.00
11888;BME280;6003;42.756;23.130;2023-06-22T03:06:20;156762.66;;;16.86;100.00
11888;BME280;6003;42.756;23.130;2023-06-22T03:08:50;156801.22;;;17.01;100.00
11888;BME280;6003;42.756;23.130;2023-06-22T03:11:17;156853.03;;;17.21;100.00
11888;BME280;6003;42.756;23.130;2023-06-22T03:13:44;156906.19;;;17.41;100.00
11888;BME280;6003;42.756;23.130;2023-06-22T03:16:11;156963.28;;;17.63;100.00
11888;BME280;6003;42.756;23.130;2023-06-22T03:18:38;157031.09;;;17.89;99.02
11888;BME280;6003;42.756;23.130;2023-06-22T03:21:05;157105.53;;;18.18;97.26
11888;BME280;6003;42.756;23.130;2023-06-22T03:23:32;157189.34;;;18.50;95.24
11888;BME280;6003;42.756;23.130;2023-06-22T03:26:00;157267.81;;;18.80;92.32
11888;BME280;6003;42.756;23.130;2023-06-22T03:28:27;157339.66;;;19.08;90.91
11888;BME280;6003;42.756;23.130;2023-06-22T03:30:56;157430.13;;;19.43;88.27
11888;BME280;6003;42.756;23.130;2023-06-22T03:33:23;157520.66;;;19.77;85.85
11888;BME280;6003;42.756;23.130;2023-06-22T03:35:50;157603.19;;;20.09;84.00
11888;BME280;6003;42.756;23.130;2023-06-22T03:38:17;157693.72;;;20.44;81.90
11888;BME280;6003;42.756;23.130;2023-06-22T03:40:44;157757.63;;;20.68;79.88
11888;BME280;6003;42.756;23.130;2023-06-22T03:43:12;157833.59;;;20.98;79.33
11888;BME280;6003;42.756;23.130;2023-06-22T03:45:39;157864.22;;;21.09;78.62
11888;BME280;6003;42.756;23.130;2023-06-22T03:48:06;157870.91;;;21.12;77.68
11888;BME280;6003;42.756;23.130;2023-06-22T03:50:33;157877.50;;;21.14;77.16
11888;BME280;6003;42.756;23.130;2023-06-22T03:53:00;157926.81;;;21.33;78.15
11888;BME280;6003;42.756;23.130;2023-06-22T03:55:27;157970.84;;;21.50;77.92
11888;BME280;6003;42.756;23.130;2023-06-22T03:57:54;158001.50;;;21.62;78.30
11888;BME280;6003;42.756;23.130;2023-06-22T04:00:23;158028.16;;;21.72;77.98
11888;BME280;6003;42.756;23.130;2023-06-22T04:02:50;158072.09;;;21.89;77.87
11888;BME280;6003;42.756;23.130;2023-06-22T04:05:17;158194.81;;;22.36;76.24
11888;BME280;6003;42.756;23.130;2023-06-22T04:07:44;158360.22;;;23.00;74.75
11888;BME280;6003;42.756;23.130;2023-06-22T04:10:11;158580.38;;;23.84;72.40
11888;BME280;6003;42.756;23.130;2023-06-22T04:12:38;158804.69;;;24.70;67.23
11888;BME280;6003;42.756;23.130;2023-06-22T04:15:05;158993.06;;;25.42;65.45
11888;BME280;6003;42.756;23.130;2023-06-22T04:17:34;159160.09;;;26.06;64.44
11888;BME280;6003;42.756;23.130;2023-06-22T04:20:01;159271.06;;;26.48;63.13
11888;BME280;6003;42.756;23.130;2023-06-22T04:22:29;159374.06;;;26.88;60.42
11888;BME280;6003;42.756;23.130;2023-06-22T04:24:56;159511.84;;;27.40;58.24
11888;BME280;6003;42.756;23.130;2023-06-22T04:27:22;159613.53;;;27.79;57.80
11888;BME280;6003;42.756;23.130;2023-06-22T04:29:49;159685.78;;;28.07;56.34
11888;BME280;6003;42.756;23.130;2023-06-22T04:32:16;159760.72;;;28.35;55.96
11888;BME280;6003;42.756;23.130;2023-06-22T04:34:45;159886.63;;;28.84;54.68
11888;BME280;6003;42.756;23.130;2023-06-22T04:37:11;159914.69;;;28.94;53.67
11888;BME280;6003;42.756;23.130;2023-06-22T04:39:41;159921.38;;;28.97;53.95
11888;BME280;6003;42.756;23.130;2023-06-22T04:42:08;159815.66;;;28.56;51.29
11888;BME280;6003;42.756;23.130;2023-06-22T04:44:35;159847.81;;;28.69;50.56
11888;BME280;6003;42.756;23.130;2023-06-22T04:47:01;159711.19;;;28.17;53.71
11888;BME280;6003;42.756;23.130;2023-06-22T04:49:30;159843.75;;;28.67;54.30
11888;BME280;6003;42.756;23.130;2023-06-22T04:52:01;159995.09;;;29.25;53.29
11888;BME280;6003;42.756;23.130;2023-06-22T04:54:29;160099.59;;;29.65;51.16
11888;BME280;6003;42.756;23.130;2023-06-22T04:56:58;160071.41;;;29.54;53.06
11888;BME280;6003;42.756;23.130;2023-06-22T04:59:27;160192.00;;;30.00;53.09
11888;BME280;6003;42.756;23.130;2023-06-22T05:01:55;160242.94;;;30.20;51.29
11888;BME280;6003;42.756;23.130;2023-06-22T05:04:22;160133.06;;;29.78;52.13
11888;BME280;6003;42.756;23.130;2023-06-22T05:06:49;160301.94;;;30.42;51.51
11888;BME280;6003;42.756;23.130;2023-06-22T05:09:18;160222.81;;;30.12;49.23
11888;BME280;6003;42.756;23.130;2023-06-22T05:11:45;159929.41;;;29.00;52.69
11888;BME280;6003;42.756;23.130;2023-06-22T05:14:12;159953.63;;;29.09;52.28
11888;BME280;6003;42.756;23.130;2023-06-22T05:16:40;160088.84;;;29.61;52.36
11888;BME280;6003;42.756;23.130;2023-06-22T05:19:08;160095.56;;;29.63;53.26
11888;BME280;6003;42.756;23.130;2023-06-22T05:21:35;160117.00;;;29.72;53.77
11888;BME280;6003;42.756;23.130;2023-06-22T05:24:02;160035.25;;;29.40;53.94
11888;BME280;6003;42.756;23.130;2023-06-22T05:26:31;160095.56;;;29.63;53.15
11888;BME280;6003;42.756;23.130;2023-06-22T05:28:59;160224.19;;;30.12;52.07
11888;BME280;6003;42.756;23.130;2023-06-22T05:31:26;160237.56;;;30.18;50.97
11888;BME280;6003;42.756;23.130;2023-06-22T05:33:54;160189.34;;;29.99;53.68
11888;BME280;6003;42.756;23.130;2023-06-22T05:36:21;160165.25;;;29.90;53.16
11888;BME280;6003;42.756;23.130;2023-06-22T05:38:50;160225.53;;;30.13;52.06
11888;BME280;6003;42.756;23.130;2023-06-22T05:41:17;160260.38;;;30.26;51.78
11888;BME280;6003;42.756;23.130;2023-06-22T05:43:46;159956.25;;;29.10;52.51
11888;BME280;6003;42.756;23.130;2023-06-22T05:46:12;159792.88;;;28.48;53.71
11888;BME280;6003;42.756;23.130;2023-06-22T05:48:39;159815.66;;;28.56;54.73
11888;BME280;6003;42.756;23.130;2023-06-22T05:51:06;160032.59;;;29.39;53.45
11888;BME280;6003;42.756;23.130;2023-06-22T05:53:33;160037.97;;;29.41;55.02
11888;BME280;6003;42.756;23.130;2023-06-22T05:55:59;160043.31;;;29.43;54.31
11888;BME280;6003;42.756;23.130;2023-06-22T05:58:26;160111.69;;;29.70;56.20
11888;BME280;6003;42.756;23.130;2023-06-22T06:00:55;160115.66;;;29.71;52.72
11888;BME280;6003;42.756;23.130;2023-06-22T06:03:21;160003.13;;;29.28;53.69
11888;BME280;6003;42.756;23.130;2023-06-22T06:05:48;159849.13;;;28.69;57.21
11888;BME280;6003;42.756;23.130;2023-06-22T06:08:15;159763.38;;;28.37;60.26
11888;BME280;6003;42.756;23.130;2023-06-22T06:10:42;159826.38;;;28.61;59.70
11888;BME280;6003;42.756;23.130;2023-06-22T06:13:09;159771.41;;;28.40;58.31
11888;BME280;6003;42.756;23.130;2023-06-22T06:15:36;159736.66;;;28.26;59.58
11888;BME280;6003;42.756;23.130;2023-06-22T06:18:04;159787.56;;;28.46;61.33
11888;BME280;6003;42.756;23.130;2023-06-22T06:20:32;159782.22;;;28.44;60.30
11888;BME280;6003;42.756;23.130;2023-06-22T06:34:42;159715.22;;;28.18;61.02
11888;BME280;6003;42.756;23.130;2023-06-22T06:37:09;159652.38;;;27.94;60.67
11888;BME280;6003;42.756;23.130;2023-06-22T06:39:36;159541.28;;;27.52;62.61
11888;BME280;6003;42.756;23.130;2023-06-22T06:42:05;159550.63;;;27.55;65.60
11888;BME280;6003;42.756;23.130;2023-06-22T06:44:32;159515.88;;;27.42;65.13
11888;BME280;6003;42.756;23.130;2023-06-22T06:46:58;159372.69;;;26.87;66.02
11888;BME280;6003;42.756;23.130;2023-06-22T06:49:26;159386.06;;;26.92;66.45
11888;BME280;6003;42.756;23.130;2023-06-22T06:51:54;159436.91;;;27.12;66.36
11888;BME280;6003;42.756;23.130;2023-06-22T06:54:21;159424.84;;;27.07;65.57
11888;BME280;6003;42.756;23.130;2023-06-22T06:56:48;159368.69;;;26.86;67.23
11888;BME280;6003;42.756;23.130;2023-06-22T06:59:15;159313.91;;;26.65;68.09
11888;BME280;6003;42.756;23.130;2023-06-22T07:01:42;159370.03;;;26.86;67.60
11888;BME280;6003;42.756;23.130;2023-06-22T07:04:09;159431.53;;;27.10;65.67
11888;BME280;6003;42.756;23.130;2023-06-22T07:06:36;159515.88;;;27.42;64.29
11888;BME280;6003;42.756;23.130;2023-06-22T07:09:05;159473.06;;;27.26;64.83
11888;BME280;6003;42.756;23.130;2023-06-22T07:11:33;159636.31;;;27.88;64.00
11888;BME280;6003;42.756;23.130;2023-06-22T07:14:00;159766.09;;;28.38;61.89
11888;BME280;6003;42.756;23.130;2023-06-22T07:16:27;159803.63;;;28.52;61.92
11888;BME280;6003;42.756;23.130;2023-06-22T07:18:55;159833.06;;;28.63;62.17
11888;BME280;6003;42.756;23.130;2023-06-22T07:21:22;159819.69;;;28.58;62.94
11888;BME280;6003;42.756;23.130;2023-06-22T07:23:49;159863.84;;;28.75;64.15
11888;BME280;6003;42.756;23.130;2023-06-22T07:26:17;159901.34;;;28.89;64.42
11888;BME280;6003;42.756;23.130;2023-06-22T07:28:44;159969.66;;;29.15;63.35
11888;BME280;6003;42.756;23.130;2023-06-22T07:31:11;160012.47;;;29.32;59.38
11888;BME280;6003;42.756;23.130;2023-06-22T07:33:38;160017.84;;;29.34;59.29
11888;BME280;6003;42.756;23.130;2023-06-22T07:36:05;160015.19;;;29.33;59.74
11888;BME280;6003;42.756;23.130;2023-06-22T07:38:33;160044.66;;;29.44;59.88
11888;BME280;6003;42.756;23.130;2023-06-22T07:41:00;160092.91;;;29.62;58.85
11888;BME280;6003;42.756;23.130;2023-06-22T07:43:29;160204.09;;;30.05;60.71
11888;BME280;6003;42.756;23.130;2023-06-22T07:45:58;160163.91;;;29.89;56.00
11888;BME280;6003;42.756;23.130;2023-06-22T07:48:25;160171.94;;;29.93;57.78
11888;BME280;6003;42.756;23.130;2023-06-22T07:50:52;160153.16;;;29.85;58.62
11888;BME280;6003;42.756;23.130;2023-06-22T07:53:20;160142.47;;;29.81;57.55
11888;BME280;6003;42.756;23.130;2023-06-22T07:55:47;160204.09;;;30.05;56.83
11888;BME280;6003;42.756;23.130;2023-06-22T07:58:14;160186.69;;;29.98;56.95
11888;BME280;6003;42.756;23.130;2023-06-22T08:00:42;160221.47;;;30.11;58.20
11888;BME280;6003;42.756;23.130;2023-06-22T08:03:09;160301.94;;;30.42;54.35
11888;BME280;6003;42.756;23.130;2023-06-22T08:05:35;160375.66;;;30.70;56.96
11888;BME280;6003;42.756;23.130;2023-06-22T08:08:02;160379.66;;;30.72;52.47
11888;BME280;6003;42.756;23.130;2023-06-22T08:10:29;160433.31;;;30.92;53.47
11888;BME280;6003;42.756;23.130;2023-06-22T08:12:56;160480.19;;;31.10;55.39
11888;BME280;6003;42.756;23.130;2023-06-22T08:15:23;160540.53;;;31.33;52.68
11888;BME280;6003;42.756;23.130;2023-06-22T08:17:51;160525.81;;;31.28;53.84
11888;BME280;6003;42.756;23.130;2023-06-22T08:20:18;160438.69;;;30.94;56.56
11888;BME280;6003;42.756;23.130;2023-06-22T08:22:45;160508.38;;;31.21;59.78
11888;BME280;6003;42.756;23.130;2023-06-22T08:25:12;160517.75;;;31.24;52.08
11888;BME280;6003;42.756;23.130;2023-06-22T08:27:40;160562.03;;;31.41;56.02
11888;BME280;6003;42.756;23.130;2023-06-22T08:30:07;160563.41;;;31.42;52.77
11888;BME280;6003;42.756;23.130;2023-06-22T08:32:36;160562.03;;;31.41;52.09
11888;BME280;6003;42.756;23.130;2023-06-22T08:35:05;160563.41;;;31.42;53.90
11888;BME280;6003;42.756;23.130;2023-06-22T08:37:33;160570.06;;;31.44;55.64
11888;BME280;6003;42.756;23.130;2023-06-22T08:40:02;160574.13;;;31.46;53.57
11888;BME280;6003;42.756;23.130;2023-06-22T08:42:30;160613.00;;;31.61;57.71
11888;BME280;6003;42.756;23.130;2023-06-22T08:44:57;160645.16;;;31.73;56.75
11888;BME280;6003;42.756;23.130;2023-06-22T08:47:24;160696.19;;;31.92;54.39
11888;BME280;6003;42.756;23.130;2023-06-22T08:49:51;160680.03;;;31.86;54.78
11888;BME280;6003;42.756;23.130;2023-06-22T08:52:19;160661.25;;;31.79;52.58
11888;BME280;6003;42.756;23.130;2023-06-22T08:54:48;160639.84;;;31.71;54.77
11888;BME280;6003;42.756;23.130;2023-06-22T08:57:15;160556.72;;;31.39;52.97
11888;BME280;6003;42.756;23.130;2023-06-22T08:59:42;160579.50;;;31.48;54.94
11888;BME280;6003;42.756;23.130;2023-06-22T09:02:09;160523.13;;;31.27;55.78
11888;BME280;6003;42.756;23.130;2023-06-22T09:04:36;160444.06;;;30.96;54.88
11888;BME280;6003;42.756;23.130;2023-06-22T09:07:03;160283.16;;;30.35;54.27
11888;BME280;6003;42.756;23.130;2023-06-22T09:09:32;160382.38;;;30.73;55.98
11888;BME280;6003;42.756;23.130;2023-06-22T09:11:59;160312.63;;;30.46;55.06
11888;BME280;6003;42.756;23.130;2023-06-22T09:14:26;160226.84;;;30.13;55.59
11888;BME280;6003;42.756;23.130;2023-06-22T09:16:53;160208.06;;;30.06;59.25
11888;BME280;6003;42.756;23.130;2023-06-22T09:19:20;160169.25;;;29.91;56.28
11888;BME280;6003;42.756;23.130;2023-06-22T09:21:46;160108.97;;;29.68;58.38
11888;BME280;6003;42.756;23.130;2023-06-22T09:27:00;160245.59;;;30.21;60.69
11888;BME280;6003;42.756;23.130;2023-06-22T09:32:31;160234.91;;;30.17;57.16
11888;BME280;6003;42.756;23.130;2023-06-22T09:34:58;160339.47;;;30.56;55.88
11888;BME280;6003;42.756;23.130;2023-06-22T09:37:25;160378.31;;;30.71;51.21
11888;BME280;6003;42.756;23.130;2023-06-22T09:39:52;160427.97;;;30.90;49.39
11888;BME280;6003;42.756;23.130;2023-06-22T09:42:20;160488.28;;;31.13;49.72
11888;BME280;6003;42.756;23.130;2023-06-22T09:44:47;160535.19;;;31.31;51.54
11888;BME280;6003;42.756;23.130;2023-06-22T09:47:14;160580.84;;;31.49;50.83
11888;BME280;6003;42.756;23.130;2023-06-22T09:49:40;160570.06;;;31.44;49.38
11888;BME280;6003;42.756;23.130;2023-06-22T09:52:08;160556.72;;;31.39;51.95
11888;BME280;6003;42.756;23.130;2023-06-22T09:54:36;160567.41;;;31.43;47.59
11888;BME280;6003;42.756;23.130;2023-06-22T09:57:03;160489.63;;;31.14;46.63
11888;BME280;6003;42.756;23.130;2023-06-22T09:59:32;160494.94;;;31.16;47.37
11888;BME280;6003;42.756;23.130;2023-06-22T10:01:58;160508.38;;;31.21;48.55
11888;BME280;6003;42.756;23.130;2023-06-22T10:04:26;160570.06;;;31.44;52.05
11888;BME280;6003;42.756;23.130;2023-06-22T10:06:53;160494.94;;;31.16;48.30
11888;BME280;6003;42.756;23.130;2023-06-22T10:09:19;160454.75;;;31.00;53.16
11888;BME280;6003;42.756;23.130;2023-06-22T10:11:46;160552.66;;;31.38;50.67
11888;BME280;6003;42.756;23.130;2023-06-22T10:14:13;160591.53;;;31.53;47.01
11888;BME280;6003;42.756;23.130;2023-06-22T10:16:41;160591.53;;;31.53;46.69
11888;BME280;6003;42.756;23.130;2023-06-22T10:19:08;160537.88;;;31.32;45.91
11888;BME280;6003;42.756;23.130;2023-06-22T10:21:35;160476.22;;;31.09;47.68
11888;BME280;6003;42.756;23.130;2023-06-22T10:24:03;160496.34;;;31.16;49.37
11888;BME280;6003;42.756;23.130;2023-06-22T10:26:31;160488.28;;;31.13;46.99
11888;BME280;6003;42.756;23.130;2023-06-22T10:28:58;160469.50;;;31.06;46.29
11888;BME280;6003;42.756;23.130;2023-06-22T10:31:25;160468.16;;;31.06;46.89
11888;BME280;6003;42.756;23.130;2023-06-22T10:33:54;160527.16;;;31.28;49.43
11888;BME280;6003;42.756;23.130;2023-06-22T10:36:21;160555.31;;;31.39;47.68
11888;BME280;6003;42.756;23.130;2023-06-22T10:38:48;160554.00;;;31.38;49.04
11888;BME280;6003;42.756;23.130;2023-06-22T10:41:15;160468.16;;;31.06;47.75
11888;BME280;6003;42.756;23.130;2023-06-22T10:43:42;160430.63;;;30.91;50.66
11888;BME280;6003;42.756;23.130;2023-06-22T10:46:09;160425.25;;;30.89;49.94
11888;BME280;6003;42.756;23.130;2023-06-22T10:48:36;160409.19;;;30.83;49.52
11888;BME280;6003;42.756;23.130;2023-06-22T10:51:05;160390.41;;;30.76;46.48
11888;BME280;6003;42.756;23.130;2023-06-22T10:53:32;160401.16;;;30.80;48.14
11888;BME280;6003;42.756;23.130;2023-06-22T10:55:58;160406.53;;;30.82;48.57
11888;BME280;6003;42.756;23.130;2023-06-22T10:58:25;160370.28;;;30.68;48.45
11888;BME280;6003;42.756;23.130;2023-06-22T11:00:52;160366.22;;;30.67;50.35
11888;BME280;6003;42.756;23.130;2023-06-22T11:03:19;160364.91;;;30.66;50.50
11888;BME280;6003;42.756;23.130;2023-06-22T11:05:46;160332.75;;;30.54;46.93
11888;BME280;6003;42.756;23.130;2023-06-22T11:08:15;160359.53;;;30.64;49.61
11888;BME280;6003;42.756;23.130;2023-06-22T11:10:43;160374.28;;;30.70;50.43
11888;BME280;6003;42.756;23.130;2023-06-22T11:13:10;160387.69;;;30.75;48.95
11888;BME280;6003;42.756;23.130;2023-06-22T11:15:37;160413.22;;;30.85;49.09
11888;BME280;6003;42.756;23.130;2023-06-22T11:18:05;160460.13;;;31.02;47.41
11888;BME280;6003;42.756;23.130;2023-06-22T11:20:33;160486.91;;;31.13;54.88
11888;BME280;6003;42.756;23.130;2023-06-22T11:23:03;160462.78;;;31.03;49.05
11888;BME280;6003;42.756;23.130;2023-06-22T11:25:32;160519.13;;;31.25;50.89
11888;BME280;6003;42.756;23.130;2023-06-22T11:28:01;160457.41;;;31.01;49.02
11888;BME280;6003;42.756;23.130;2023-06-22T11:30:28;160307.31;;;30.44;50.10
11888;BME280;6003;42.756;23.130;2023-06-22T11:32:56;160192.00;;;30.00;51.29
11888;BME280;6003;42.756;23.130;2023-06-22T11:35:24;160208.06;;;30.06;52.34
11888;BME280;6003;42.756;23.130;2023-06-22T11:37:51;160279.16;;;30.33;51.16
11888;BME280;6003;42.756;23.130;2023-06-22T11:40:18;160366.22;;;30.67;53.91
11888;BME280;6003;42.756;23.130;2023-06-22T11:42:46;160399.81;;;30.79;49.44
11888;BME280;6003;42.756;23.130;2023-06-22T11:45:13;160431.97;;;30.92;50.97
11888;BME280;6003;42.756;23.130;2023-06-22T11:47:40;160497.66;;;31.17;50.28
11888;BME280;6003;42.756;23.130;2023-06-22T11:50:07;160450.75;;;30.99;49.01
11888;BME280;6003;42.756;23.130;2023-06-22T11:52:35;160462.78;;;31.03;51.55
11888;BME280;6003;42.756;23.130;2023-06-22T11:55:02;160425.25;;;30.89;48.35
11888;BME280;6003;42.756;23.130;2023-06-22T11:57:33;160372.94;;;30.69;47.29
11888;BME280;6003;42.756;23.130;2023-06-22T12:00:03;160358.19;;;30.64;50.43
11888;BME280;6003;42.756;23.130;2023-06-22T12:02:41;160332.75;;;30.54;48.57
11888;BME280;6003;42.756;23.130;2023-06-22T12:05:08;160342.13;;;30.57;50.58
11888;BME280;6003;42.756;23.130;2023-06-22T12:07:35;160323.38;;;30.50;49.65
11888;BME280;6003;42.756;23.130;2023-06-22T12:10:03;160261.75;;;30.27;50.33
11888;BME280;6003;42.756;23.130;2023-06-22T12:12:30;160063.38;;;29.51;54.96
11888;BME280;6003;42.756;23.130;2023-06-22T12:26:35;157818.94;;;20.92;100.00
11888;BME280;6003;42.756;23.130;2023-06-22T12:29:02;157768.31;;;20.72;100.00
11888;BME280;6003;42.756;23.130;2023-06-22T12:43:55;158441.59;;;23.31;100.00
11888;BME280;6003;42.756;23.130;2023-06-22T12:46:22;158576.41;;;23.82;100.00
11888;BME280;6003;42.756;23.130;2023-06-22T12:48:49;158592.41;;;23.89;100.00
11888;BME280;6003;42.756;23.130;2023-06-22T12:51:20;158571.06;;;23.80;100.00
11888;BME280;6003;42.756;23.130;2023-06-22T12:53:47;158531.00;;;23.65;100.00
11888;BME280;6003;42.756;23.130;2023-06-22T12:56:14;158513.59;;;23.58;100.00
11888;BME280;6003;42.756;23.130;2023-06-22T12:58:41;158498.94;;;23.53;100.00
11888;BME280;6003;42.756;23.130;2023-06-22T13:01:09;158476.25;;;23.44;100.00
11888;BME280;6003;42.756;23.130;2023-06-22T13:03:36;158424.22;;;23.24;100.00
11888;BME280;6003;42.756;23.130;2023-06-22T13:06:04;158356.19;;;22.98;100.00
11888;BME280;6003;42.756;23.130;2023-06-22T13:08:30;158344.16;;;22.93;100.00
11888;BME280;6003;42.756;23.130;2023-06-22T13:10:57;158346.81;;;22.94;100.00
11888;BME280;6003;42.756;23.130;2023-06-22T13:13:25;158349.53;;;22.95;100.00
11888;BME280;6003;42.756;23.130;2023-06-22T13:15:52;158330.81;;;22.88;100.00
11888;BME280;6003;42.756;23.130;2023-06-22T13:18:20;158314.81;;;22.82;100.00
11888;BME280;6003;42.756;23.130;2023-06-22T13:20:47;158285.47;;;22.71;100.00
11888;BME280;6003;42.756;23.130;2023-06-22T13:23:14;158258.78;;;22.61;100.00
11888;BME280;6003;42.756;23.130;2023-06-22T13:38:36;158190.78;;;22.35;100.00
11888;BME280;6003;42.756;23.130;2023-06-22T13:41:03;158172.16;;;22.27;100.00
11888;BME280;6003;42.756;23.130;2023-06-22T13:43:31;158168.13;;;22.26;100.00
11888;BME280;6003;42.756;23.130;2023-06-22T13:45:58;158160.13;;;22.23;100.00